sensor_id;sensor_type;location;lat;lon;timestamp;pressure;altitude;pressure_sealevel;temperature;humidity
31911;BME280;18457;52.432;16.914;2022-12-13T00:00:48;99892.13;;;-0.85;82.53
31911;BME280;18457;52.432;16.914;2022-12-13T00:03:26;99894.40;;;-0.87;82.66
31911;BME280;18457;52.432;16.914;2022-12-13T00:05:58;99896.31;;;-0.91;82.45
31911;BME280;18457;52.432;16.914;2022-12-13T00:08:30;99892.84;;;-0.98;82.62
31911;BME280;18457;52.432;16.914;2022-12-13T00:11:04;99895.73;;;-0.94;82.59
31911;BME280;18457;52.432;16.914;2022-12-13T00:13:36;99888.88;;;-0.89;82.48
31911;BME280;18457;52.432;16.914;2022-12-13T00:16:12;99897.30;;;-0.96;82.47
31911;BME280;18457;52.432;16.914;2022-12-13T00:18:47;99901.73;;;-0.96;82.00
31911;BME280;18457;52.432;16.914;2022-12-13T00:21:21;99894.80;;;-1.10;82.46
31911;BME280;18457;52.432;16.914;2022-12-13T00:23:54;99904.44;;;-1.05;82.69
31911;BME280;18457;52.432;16.914;2022-12-13T00:26:29;99908.20;;;-1.02;82.15
31911;BME280;18457;52.432;16.914;2022-12-13T00:29:03;99909.80;;;-1.01;82.19
31911;BME280;18457;52.432;16.914;2022-12-13T00:31:36;99903.56;;;-1.04;81.82
31911;BME280;18457;52.432;16.914;2022-12-13T00:34:27;99910.99;;;-1.05;82.24
31911;BME280;18457;52.432;16.914;2022-12-13T00:36:59;99909.21;;;-1.06;82.20
31911;BME280;18457;52.432;16.914;2022-12-13T00:39:31;99910.80;;;-1.06;82.00
31911;BME280;18457;52.432;16.914;2022-12-13T00:42:03;99911.98;;;-1.10;81.91
31911;BME280;18457;52.432;16.914;2022-12-13T00:44:35;99916.15;;;-1.16;82.14
31911;BME280;18457;52.432;16.914;2022-12-13T00:47:07;99921.62;;;-1.17;82.37
31911;BME280;18457;52.432;16.914;2022-12-13T00:49:39;99926.27;;;-1.27;82.28
31911;BME280;18457;52.432;16.914;2022-12-13T00:52:10;99927.27;;;-1.30;82.26
31911;BME280;18457;52.432;16.914;2022-12-13T00:54:43;99925.95;;;-1.35;82.49
31911;BME280;18457;52.432;16.914;2022-12-13T00:57:14;99930.33;;;-1.38;82.52
31911;BME280;18457;52.432;16.914;2022-12-13T00:59:47;99929.17;;;-1.33;82.81
31911;BME280;18457;52.432;16.914;2022-12-13T01:02:19;99926.70;;;-1.32;82.29
31911;BME280;18457;52.432;16.914;2022-12-13T01:04:51;99922.23;;;-1.35;82.55
31911;BME280;18457;52.432;16.914;2022-12-13T01:07:23;99917.33;;;-1.20;82.15
31911;BME280;18457;52.432;16.914;2022-12-13T01:09:55;99916.64;;;-1.30;82.04
31911;BME280;18457;52.432;16.914;2022-12-13T01:12:26;99914.55;;;-1.51;82.36
31911;BME280;18457;52.432;16.914;2022-12-13T01:14:57;99912.42;;;-1.40;82.17
31911;BME280;18457;52.432;16.914;2022-12-13T01:17:29;99919.83;;;-1.52;82.36
31911;BME280;18457;52.432;16.914;2022-12-13T01:20:02;99917.02;;;-1.72;82.87
31911;BME280;18457;52.432;16.914;2022-12-13T01:22:35;99913.53;;;-1.69;83.40
31911;BME280;18457;52.432;16.914;2022-12-13T01:25:08;99915.05;;;-1.52;82.97
31911;BME280;18457;52.432;16.914;2022-12-13T01:27:38;99916.33;;;-1.50;82.32
31911;BME280;18457;52.432;16.914;2022-12-13T01:30:11;99914.56;;;-1.71;82.86
31911;BME280;18457;52.432;16.914;2022-12-13T01:32:43;99912.52;;;-1.67;82.66
31911;BME280;18457;52.432;16.914;2022-12-13T01:35:16;99911.17;;;-1.51;82.26
31911;BME280;18457;52.432;16.914;2022-12-13T01:37:48;99917.33;;;-1.65;82.36
31911;BME280;18457;52.432;16.914;2022-12-13T01:40:21;99919.15;;;-1.73;83.00
31911;BME280;18457;52.432;16.914;2022-12-13T01:42:56;99918.62;;;-1.61;82.49
31911;BME280;18457;52.432;16.914;2022-12-13T01:45:28;99919.27;;;-1.54;82.37
31911;BME280;18457;52.432;16.914;2022-12-13T01:48:02;99920.40;;;-1.50;81.97
31911;BME280;18457;52.432;16.914;2022-12-13T01:50:38;99923.95;;;-1.50;81.47
31911;BME280;18457;52.432;16.914;2022-12-13T01:53:14;99920.57;;;-1.61;81.77
31911;BME280;18457;52.432;16.914;2022-12-13T01:55:52;99915.15;;;-1.68;82.06
31911;BME280;18457;52.432;16.914;2022-12-13T01:58:25;99917.55;;;-1.61;81.82
31911;BME280;18457;52.432;16.914;2022-12-13T02:00:58;99917.17;;;-1.52;81.46
31911;BME280;18457;52.432;16.914;2022-12-13T02:03:30;99921.86;;;-1.46;80.99
31911;BME280;18457;52.432;16.914;2022-12-13T02:06:08;99926.84;;;-1.57;81.32
31911;BME280;18457;52.432;16.914;2022-12-13T02:08:44;99927.64;;;-1.51;81.33
31911;BME280;18457;52.432;16.914;2022-12-13T02:11:17;99930.94;;;-1.56;81.40
31911;BME280;18457;52.432;16.914;2022-12-13T02:13:49;99928.32;;;-1.53;81.22
31911;BME280;18457;52.432;16.914;2022-12-13T02:16:29;99928.22;;;-1.49;80.82
31911;BME280;18457;52.432;16.914;2022-12-13T02:19:33;99921.08;;;-1.52;81.06
31911;BME280;18457;52.432;16.914;2022-12-13T02:22:22;99919.52;;;-1.51;80.80
31911;BME280;18457;52.432;16.914;2022-12-13T02:25:12;99918.64;;;-1.49;80.60
31911;BME280;18457;52.432;16.914;2022-12-13T02:28:05;99915.61;;;-1.50;80.86
31911;BME280;18457;52.432;16.914;2022-12-13T02:31:07;99916.71;;;-1.48;80.66
31911;BME280;18457;52.432;16.914;2022-12-13T02:33:48;99918.42;;;-1.51;80.69
31911;BME280;18457;52.432;16.914;2022-12-13T02:36:29;99921.90;;;-1.56;80.59
31911;BME280;18457;52.432;16.914;2022-12-13T02:39:09;99914.59;;;-1.70;81.15
31911;BME280;18457;52.432;16.914;2022-12-13T02:41:48;99912.86;;;-1.56;80.94
31911;BME280;18457;52.432;16.914;2022-12-13T02:44:23;99913.29;;;-1.52;80.62
31911;BME280;18457;52.432;16.914;2022-12-13T02:46:59;99907.14;;;-1.59;80.74
31911;BME280;18457;52.432;16.914;2022-12-13T02:49:36;99905.28;;;-1.65;80.83
31911;BME280;18457;52.432;16.914;2022-12-13T02:52:10;99908.05;;;-1.69;80.95
31911;BME280;18457;52.432;16.914;2022-12-13T02:54:54;99908.88;;;-1.62;80.74
31911;BME280;18457;52.432;16.914;2022-12-13T02:57:34;99906.72;;;-1.74;80.97
31911;BME280;18457;52.432;16.914;2022-12-13T03:00:10;99905.77;;;-1.78;81.01
31911;BME280;18457;52.432;16.914;2022-12-13T03:02:54;99902.33;;;-1.61;80.71
31911;BME280;18457;52.432;16.914;2022-12-13T03:05:38;99905.47;;;-1.65;80.34
31911;BME280;18457;52.432;16.914;2022-12-13T03:08:38;99909.66;;;-1.57;80.25
31911;BME280;18457;52.432;16.914;2022-12-13T03:11:16;99901.77;;;-1.63;80.49
31911;BME280;18457;52.432;16.914;2022-12-13T03:13:51;99904.56;;;-1.76;80.65
31911;BME280;18457;52.432;16.914;2022-12-13T03:16:29;99906.18;;;-1.74;80.90
31911;BME280;18457;52.432;16.914;2022-12-13T03:19:05;99904.73;;;-1.67;80.60
31911;BME280;18457;52.432;16.914;2022-12-13T03:21:41;99904.04;;;-1.55;80.20
31911;BME280;18457;52.432;16.914;2022-12-13T03:24:19;99912.25;;;-1.72;80.45
31911;BME280;18457;52.432;16.914;2022-12-13T03:26:52;99910.02;;;-1.68;80.67
31911;BME280;18457;52.432;16.914;2022-12-13T03:29:24;99901.29;;;-1.61;80.49
31911;BME280;18457;52.432;16.914;2022-12-13T03:31:56;99904.55;;;-1.67;80.48
31911;BME280;18457;52.432;16.914;2022-12-13T03:34:27;99905.26;;;-1.67;80.42
31911;BME280;18457;52.432;16.914;2022-12-13T03:37:15;99900.09;;;-1.47;79.92
31911;BME280;18457;52.432;16.914;2022-12-13T03:39:46;99908.81;;;-1.55;79.79
31911;BME280;18457;52.432;16.914;2022-12-13T03:42:18;99906.20;;;-1.62;80.14
31911;BME280;18457;52.432;16.914;2022-12-13T03:44:50;99902.15;;;-1.61;80.25
31911;BME280;18457;52.432;16.914;2022-12-13T03:47:22;99902.37;;;-1.59;80.04
31911;BME280;18457;52.432;16.914;2022-12-13T03:49:54;99906.64;;;-1.57;79.98
31911;BME280;18457;52.432;16.914;2022-12-13T03:52:26;99899.92;;;-1.57;79.99
31911;BME280;18457;52.432;16.914;2022-12-13T03:54:57;99899.30;;;-1.52;79.79
31911;BME280;18457;52.432;16.914;2022-12-13T03:57:29;99897.64;;;-1.45;79.50
31911;BME280;18457;52.432;16.914;2022-12-13T04:00:01;99897.75;;;-1.48;79.28
31911;BME280;18457;52.432;16.914;2022-12-13T04:02:41;99898.36;;;-1.55;79.46
31911;BME280;18457;52.432;16.914;2022-12-13T04:05:13;99896.83;;;-1.51;79.47
31911;BME280;18457;52.432;16.914;2022-12-13T04:07:46;99898.36;;;-1.55;79.44
31911;BME280;18457;52.432;16.914;2022-12-13T04:10:18;99893.25;;;-1.54;79.37
31911;BME280;18457;52.432;16.914;2022-12-13T04:12:56;99890.38;;;-1.44;79.10
31911;BME280;18457;52.432;16.914;2022-12-13T04:15:45;99888.98;;;-1.54;79.30
31911;BME280;18457;52.432;16.914;2022-12-13T04:18:19;99893.47;;;-1.51;79.10
31911;BME280;18457;52.432;16.914;2022-12-13T04:20:52;99891.07;;;-1.46;78.76
31911;BME280;18457;52.432;16.914;2022-12-13T04:23:24;99902.88;;;-1.26;78.31
31911;BME280;18457;52.432;16.914;2022-12-13T04:25:55;99898.98;;;-1.38;78.72
31911;BME280;18457;52.432;16.914;2022-12-13T04:28:28;99889.63;;;-1.47;79.01
31911;BME280;18457;52.432;16.914;2022-12-13T04:31:00;99892.05;;;-1.41;78.95
31911;BME280;18457;52.432;16.914;2022-12-13T04:33:32;99893.19;;;-1.46;78.98
31911;BME280;18457;52.432;16.914;2022-12-13T04:36:04;99892.42;;;-1.38;78.91
31911;BME280;18457;52.432;16.914;2022-12-13T04:38:36;99893.48;;;-1.38;78.75
31911;BME280;18457;52.432;16.914;2022-12-13T04:41:12;99887.87;;;-1.35;78.78
31911;BME280;18457;52.432;16.914;2022-12-13T04:43:46;99892.34;;;-1.44;79.01
31911;BME280;18457;52.432;16.914;2022-12-13T04:46:21;99896.93;;;-1.45;78.93
31911;BME280;18457;52.432;16.914;2022-12-13T04:48:52;99895.91;;;-1.42;78.90
31911;BME280;18457;52.432;16.914;2022-12-13T04:51:24;99894.16;;;-1.40;78.87
31911;BME280;18457;52.432;16.914;2022-12-13T04:53:56;99893.14;;;-1.38;79.00
31911;BME280;18457;52.432;16.914;2022-12-13T04:56:49;99894.18;;;-1.40;79.04
31911;BME280;18457;52.432;16.914;2022-12-13T04:59:21;99892.79;;;-1.38;78.97
31911;BME280;18457;52.432;16.914;2022-12-13T05:01:53;99894.05;;;-1.25;78.59
31911;BME280;18457;52.432;16.914;2022-12-13T05:04:25;99894.88;;;-1.29;78.63
31911;BME280;18457;52.432;16.914;2022-12-13T05:07:02;99889.01;;;-1.30;78.60
31911;BME280;18457;52.432;16.914;2022-12-13T05:09:35;99888.44;;;-1.33;78.67
31911;BME280;18457;52.432;16.914;2022-12-13T05:12:07;99890.13;;;-1.27;78.34
31911;BME280;18457;52.432;16.914;2022-12-13T05:14:53;99893.79;;;-1.31;78.49
31911;BME280;18457;52.432;16.914;2022-12-13T05:17:25;99895.91;;;-1.30;78.44
31911;BME280;18457;52.432;16.914;2022-12-13T05:19:56;99896.35;;;-1.25;78.69
31911;BME280;18457;52.432;16.914;2022-12-13T05:22:28;99899.01;;;-1.25;78.33
31911;BME280;18457;52.432;16.914;2022-12-13T05:25:00;99896.75;;;-1.34;78.57
31911;BME280;18457;52.432;16.914;2022-12-13T05:27:32;99896.83;;;-1.28;78.58
31911;BME280;18457;52.432;16.914;2022-12-13T05:30:04;99900.24;;;-1.25;78.45
31911;BME280;18457;52.432;16.914;2022-12-13T05:32:37;99906.36;;;-1.31;78.38
31911;BME280;18457;52.432;16.914;2022-12-13T05:35:14;99900.04;;;-1.27;78.42
31911;BME280;18457;52.432;16.914;2022-12-13T05:37:53;99906.56;;;-1.29;78.69
31911;BME280;18457;52.432;16.914;2022-12-13T05:40:26;99902.92;;;-1.35;79.08
31911;BME280;18457;52.432;16.914;2022-12-13T05:42:58;99905.51;;;-1.40;79.12
31911;BME280;18457;52.432;16.914;2022-12-13T05:45:31;99906.41;;;-1.29;78.84
31911;BME280;18457;52.432;16.914;2022-12-13T05:48:03;99907.94;;;-1.32;78.79
31911;BME280;18457;52.432;16.914;2022-12-13T05:50:35;99911.36;;;-1.39;79.18
31911;BME280;18457;52.432;16.914;2022-12-13T05:53:08;99912.00;;;-1.33;79.18
31911;BME280;18457;52.432;16.914;2022-12-13T05:55:42;99909.90;;;-1.30;79.04
31911;BME280;18457;52.432;16.914;2022-12-13T05:58:14;99914.30;;;-1.33;79.18
31911;BME280;18457;52.432;16.914;2022-12-13T06:00:52;99915.52;;;-1.35;79.22
31911;BME280;18457;52.432;16.914;2022-12-13T06:03:24;99909.09;;;-1.37;79.22
31911;BME280;18457;52.432;16.914;2022-12-13T06:05:56;99913.70;;;-1.36;79.24
31911;BME280;18457;52.432;16.914;2022-12-13T06:08:31;99910.23;;;-1.32;79.27
31911;BME280;18457;52.432;16.914;2022-12-13T06:11:05;99912.02;;;-1.32;79.18
31911;BME280;18457;52.432;16.914;2022-12-13T06:13:43;99911.67;;;-1.31;79.20
31911;BME280;18457;52.432;16.914;2022-12-13T06:16:15;99913.27;;;-1.19;78.82
31911;BME280;18457;52.432;16.914;2022-12-13T06:18:54;99911.03;;;-1.27;78.58
31911;BME280;18457;52.432;16.914;2022-12-13T06:21:34;99912.71;;;-1.32;78.96
31911;BME280;18457;52.432;16.914;2022-12-13T06:24:16;99912.23;;;-1.29;78.93
31911;BME280;18457;52.432;16.914;2022-12-13T06:26:49;99910.90;;;-1.23;78.40
31911;BME280;18457;52.432;16.914;2022-12-13T06:29:22;99917.00;;;-1.29;78.66
31911;BME280;18457;52.432;16.914;2022-12-13T06:31:58;99917.40;;;-1.16;78.36
31911;BME280;18457;52.432;16.914;2022-12-13T06:34:34;99919.86;;;-1.29;78.37
31911;BME280;18457;52.432;16.914;2022-12-13T06:37:07;99920.34;;;-1.32;78.49
31911;BME280;18457;52.432;16.914;2022-12-13T06:39:39;99923.59;;;-1.28;78.53
31911;BME280;18457;52.432;16.914;2022-12-13T06:42:16;99925.98;;;-1.33;78.47
31911;BME280;18457;52.432;16.914;2022-12-13T06:44:52;99927.27;;;-1.31;78.46
31911;BME280;18457;52.432;16.914;2022-12-13T06:47:26;99926.65;;;-1.36;78.53
31911;BME280;18457;52.432;16.914;2022-12-13T06:50:02;99928.77;;;-1.35;78.28
31911;BME280;18457;52.432;16.914;2022-12-13T06:52:35;99929.47;;;-1.37;78.38
31911;BME280;18457;52.432;16.914;2022-12-13T06:55:09;99934.94;;;-1.39;78.46
31911;BME280;18457;52.432;16.914;2022-12-13T06:57:42;99936.05;;;-1.35;78.24
31911;BME280;18457;52.432;16.914;2022-12-13T07:00:15;99936.73;;;-1.36;78.16
31911;BME280;18457;52.432;16.914;2022-12-13T07:02:55;99943.71;;;-1.32;78.14
31911;BME280;18457;52.432;16.914;2022-12-13T07:05:28;99945.10;;;-1.23;77.59
31911;BME280;18457;52.432;16.914;2022-12-13T07:08:00;99941.77;;;-1.31;77.63
31911;BME280;18457;52.432;16.914;2022-12-13T07:10:32;99947.44;;;-1.09;77.19
31911;BME280;18457;52.432;16.914;2022-12-13T07:13:04;99948.25;;;-1.02;76.53
31911;BME280;18457;52.432;16.914;2022-12-13T07:15:36;99951.14;;;-1.10;76.50
31911;BME280;18457;52.432;16.914;2022-12-13T07:18:08;99948.66;;;-1.23;76.84
31911;BME280;18457;52.432;16.914;2022-12-13T07:20:40;99955.52;;;-1.25;76.57
31911;BME280;18457;52.432;16.914;2022-12-13T07:23:13;99954.90;;;-1.20;76.15
31911;BME280;18457;52.432;16.914;2022-12-13T07:25:52;99953.61;;;-1.33;76.49
31911;BME280;18457;52.432;16.914;2022-12-13T07:28:25;99958.53;;;-1.25;76.39
31911;BME280;18457;52.432;16.914;2022-12-13T07:31:00;99957.29;;;-1.25;75.85
31911;BME280;18457;52.432;16.914;2022-12-13T07:33:32;99962.84;;;-0.99;75.11
31911;BME280;18457;52.432;16.914;2022-12-13T07:36:09;99964.80;;;-1.10;75.20
31911;BME280;18457;52.432;16.914;2022-12-13T07:38:42;99968.01;;;-1.08;75.05
31911;BME280;18457;52.432;16.914;2022-12-13T07:41:15;99969.34;;;-1.02;74.68
31911;BME280;18457;52.432;16.914;2022-12-13T07:43:54;99973.20;;;-1.04;74.55
31911;BME280;18457;52.432;16.914;2022-12-13T07:46:26;99969.99;;;-0.94;74.30
31911;BME280;18457;52.432;16.914;2022-12-13T07:49:04;99968.14;;;-0.99;74.23
31911;BME280;18457;52.432;16.914;2022-12-13T07:51:36;99969.61;;;-0.96;73.85
31911;BME280;18457;52.432;16.914;2022-12-13T07:54:08;99972.80;;;-0.96;73.88
31911;BME280;18457;52.432;16.914;2022-12-13T07:56:40;99971.70;;;-0.98;73.37
31911;BME280;18457;52.432;16.914;2022-12-13T07:59:12;99975.65;;;-0.82;75.68
31911;BME280;18457;52.432;16.914;2022-12-13T08:01:44;99979.63;;;-0.90;74.37
31911;BME280;18457;52.432;16.914;2022-12-13T08:04:16;99981.72;;;-1.04;73.45
31911;BME280;18457;52.432;16.914;2022-12-13T08:06:48;99979.18;;;-1.08;73.38
31911;BME280;18457;52.432;16.914;2022-12-13T08:09:19;99983.49;;;-0.92;73.16
31911;BME280;18457;52.432;16.914;2022-12-13T08:11:52;99982.15;;;-0.98;73.28
31911;BME280;18457;52.432;16.914;2022-12-13T08:14:38;99982.16;;;-0.98;73.16
31911;BME280;18457;52.432;16.914;2022-12-13T08:17:10;99984.06;;;-1.01;73.39
31911;BME280;18457;52.432;16.914;2022-12-13T08:19:42;99985.20;;;-0.97;73.09
31911;BME280;18457;52.432;16.914;2022-12-13T08:22:14;99986.55;;;-0.88;72.89
31911;BME280;18457;52.432;16.914;2022-12-13T08:24:53;99992.95;;;-0.88;72.60
31911;BME280;18457;52.432;16.914;2022-12-13T08:27:26;99986.52;;;-0.80;72.43
31911;BME280;18457;52.432;16.914;2022-12-13T08:29:57;99987.42;;;-0.66;74.66
31911;BME280;18457;52.432;16.914;2022-12-13T08:32:29;99992.39;;;-0.78;72.65
31911;BME280;18457;52.432;16.914;2022-12-13T08:35:01;99995.70;;;-0.93;73.18
31911;BME280;18457;52.432;16.914;2022-12-13T08:37:33;99996.22;;;-0.95;73.93
31911;BME280;18457;52.432;16.914;2022-12-13T08:40:06;99998.05;;;-1.02;73.92
31911;BME280;18457;52.432;16.914;2022-12-13T08:42:40;99999.98;;;-1.03;74.05
31911;BME280;18457;52.432;16.914;2022-12-13T08:45:12;100006.33;;;-1.05;74.67
31911;BME280;18457;52.432;16.914;2022-12-13T08:47:44;100006.10;;;-1.09;77.16
31911;BME280;18457;52.432;16.914;2022-12-13T08:50:17;100006.84;;;-1.18;78.47
31911;BME280;18457;52.432;16.914;2022-12-13T08:52:57;100005.04;;;-1.08;78.82
31911;BME280;18457;52.432;16.914;2022-12-13T08:55:29;100006.27;;;-1.20;78.73
31911;BME280;18457;52.432;16.914;2022-12-13T08:58:05;100007.13;;;-1.11;78.64
31911;BME280;18457;52.432;16.914;2022-12-13T09:00:39;100007.19;;;-1.18;78.07
31911;BME280;18457;52.432;16.914;2022-12-13T09:03:12;100008.14;;;-1.14;77.58
31911;BME280;18457;52.432;16.914;2022-12-13T09:05:44;100012.34;;;-1.17;77.76
31911;BME280;18457;52.432;16.914;2022-12-13T09:08:17;100015.30;;;-1.10;78.13
31911;BME280;18457;52.432;16.914;2022-12-13T09:10:58;100017.58;;;-1.11;78.82
31911;BME280;18457;52.432;16.914;2022-12-13T09:13:41;100013.17;;;-0.63;83.64
31911;BME280;18457;52.432;16.914;2022-12-13T09:16:12;100016.81;;;-0.80;80.15
31911;BME280;18457;52.432;16.914;2022-12-13T09:18:58;100016.91;;;-0.98;79.38
31911;BME280;18457;52.432;16.914;2022-12-13T09:21:50;100013.23;;;-0.93;79.28
31911;BME280;18457;52.432;16.914;2022-12-13T09:24:32;100010.52;;;-0.86;78.74
31911;BME280;18457;52.432;16.914;2022-12-13T09:27:06;100012.57;;;-0.92;78.96
31911;BME280;18457;52.432;16.914;2022-12-13T09:29:56;100017.92;;;-0.90;78.37
31911;BME280;18457;52.432;16.914;2022-12-13T09:32:29;100014.86;;;-0.93;78.08
31911;BME280;18457;52.432;16.914;2022-12-13T09:35:01;100018.71;;;-0.95;77.92
31911;BME280;18457;52.432;16.914;2022-12-13T09:37:33;100016.52;;;-0.87;77.81
31911;BME280;18457;52.432;16.914;2022-12-13T09:40:19;100019.86;;;-0.90;77.82
31911;BME280;18457;52.432;16.914;2022-12-13T09:42:59;100014.89;;;-0.78;78.27
31911;BME280;18457;52.432;16.914;2022-12-13T09:45:44;100019.29;;;-0.69;78.39
31911;BME280;18457;52.432;16.914;2022-12-13T09:48:19;100018.54;;;-0.72;78.79
31911;BME280;18457;52.432;16.914;2022-12-13T09:50:52;100018.90;;;-0.83;78.48
31911;BME280;18457;52.432;16.914;2022-12-13T09:53:47;100019.87;;;-0.65;78.09
31911;BME280;18457;52.432;16.914;2022-12-13T09:56:24;100025.88;;;-0.66;77.50
31911;BME280;18457;52.432;16.914;2022-12-13T09:58:56;100021.74;;;-0.59;77.31
31911;BME280;18457;52.432;16.914;2022-12-13T10:01:29;100023.68;;;-0.60;77.08
31911;BME280;18457;52.432;16.914;2022-12-13T10:04:01;100024.13;;;-0.76;77.03
31911;BME280;18457;52.432;16.914;2022-12-13T10:06:34;100022.66;;;-0.81;77.00
31911;BME280;18457;52.432;16.914;2022-12-13T10:09:10;100021.82;;;-0.78;77.60
31911;BME280;18457;52.432;16.914;2022-12-13T10:11:52;100020.65;;;-0.73;77.32
31911;BME280;18457;52.432;16.914;2022-12-13T10:14:29;100026.71;;;-0.59;77.24
31911;BME280;18457;52.432;16.914;2022-12-13T10:17:06;100029.27;;;-0.54;77.24
31911;BME280;18457;52.432;16.914;2022-12-13T10:19:41;100031.36;;;-0.56;77.79
31911;BME280;18457;52.432;16.914;2022-12-13T10:22:15;100027.03;;;-0.62;77.52
31911;BME280;18457;52.432;16.914;2022-12-13T10:24:52;100026.42;;;-0.55;77.65
31911;BME280;18457;52.432;16.914;2022-12-13T10:27:28;100028.71;;;-0.67;76.78
31911;BME280;18457;52.432;16.914;2022-12-13T10:30:07;100024.67;;;-0.65;76.53
31911;BME280;18457;52.432;16.914;2022-12-13T10:32:51;100029.80;;;-0.67;76.46
31911;BME280;18457;52.432;16.914;2022-12-13T10:35:26;100024.23;;;-0.71;76.25
31911;BME280;18457;52.432;16.914;2022-12-13T10:38:00;100022.58;;;-0.62;76.07
31911;BME280;18457;52.432;16.914;2022-12-13T10:40:35;100017.80;;;-0.49;76.12
31911;BME280;18457;52.432;16.914;2022-12-13T10:43:13;100019.86;;;-0.41;75.90
31911;BME280;18457;52.432;16.914;2022-12-13T10:45:57;100017.47;;;-0.35;75.71
31911;BME280;18457;52.432;16.914;2022-12-13T10:48:35;100020.44;;;-0.50;75.46
31911;BME280;18457;52.432;16.914;2022-12-13T10:51:10;100016.02;;;-0.49;75.37
31911;BME280;18457;52.432;16.914;2022-12-13T10:53:47;100014.41;;;-0.38;74.91
31911;BME280;18457;52.432;16.914;2022-12-13T10:56:22;100011.68;;;1.32;89.15
31911;BME280;18457;52.432;16.914;2022-12-13T10:59:11;100019.38;;;0.07;77.50
31911;BME280;18457;52.432;16.914;2022-12-13T11:01:52;100013.03;;;-0.07;75.30
31911;BME280;18457;52.432;16.914;2022-12-13T11:04:27;100019.36;;;-0.12;75.04
31911;BME280;18457;52.432;16.914;2022-12-13T11:07:20;100013.65;;;-0.28;75.01
31911;BME280;18457;52.432;16.914;2022-12-13T11:09:53;100015.14;;;-0.23;75.05
31911;BME280;18457;52.432;16.914;2022-12-13T11:12:34;100019.18;;;-0.25;74.78
31911;BME280;18457;52.432;16.914;2022-12-13T11:15:12;100017.92;;;-0.13;74.41
31911;BME280;18457;52.432;16.914;2022-12-13T11:17:55;100010.89;;;-0.22;74.33
31911;BME280;18457;52.432;16.914;2022-12-13T11:20:32;100010.52;;;-0.23;74.79
31911;BME280;18457;52.432;16.914;2022-12-13T11:23:06;100012.08;;;-0.25;74.55
31911;BME280;18457;52.432;16.914;2022-12-13T11:25:45;100012.23;;;-0.14;73.97
31911;BME280;18457;52.432;16.914;2022-12-13T11:28:19;100010.54;;;-0.22;74.24
31911;BME280;18457;52.432;16.914;2022-12-13T11:31:12;100011.58;;;-0.10;74.08
31911;BME280;18457;52.432;16.914;2022-12-13T11:33:56;100012.41;;;-0.14;74.21
31911;BME280;18457;52.432;16.914;2022-12-13T11:36:36;100013.13;;;0.02;74.19
31911;BME280;18457;52.432;16.914;2022-12-13T11:39:17;100015.15;;;-0.22;74.57
31911;BME280;18457;52.432;16.914;2022-12-13T11:41:57;100014.42;;;-0.23;75.30
31911;BME280;18457;52.432;16.914;2022-12-13T11:44:39;100019.20;;;-0.25;75.02
31911;BME280;18457;52.432;16.914;2022-12-13T11:47:21;100020.50;;;-0.06;75.04
31911;BME280;18457;52.432;16.914;2022-12-13T11:49:57;100019.41;;;-0.07;75.88
31911;BME280;18457;52.432;16.914;2022-12-13T11:52:34;100023.23;;;-0.14;76.72
31911;BME280;18457;52.432;16.914;2022-12-13T11:55:16;100022.24;;;-0.08;76.28
31911;BME280;18457;52.432;16.914;2022-12-13T11:57:53;100026.50;;;-0.22;76.87
31911;BME280;18457;52.432;16.914;2022-12-13T12:00:34;100028.48;;;-0.19;76.31
31911;BME280;18457;52.432;16.914;2022-12-13T12:03:17;100027.11;;;-0.02;75.86
31911;BME280;18457;52.432;16.914;2022-12-13T12:05:52;100032.64;;;-0.14;76.30
31911;BME280;18457;52.432;16.914;2022-12-13T12:08:31;100034.90;;;-0.18;76.83
31911;BME280;18457;52.432;16.914;2022-12-13T12:11:11;100034.98;;;-0.13;76.75
31911;BME280;18457;52.432;16.914;2022-12-13T12:13:46;100033.42;;;-0.08;77.08
31911;BME280;18457;52.432;16.914;2022-12-13T12:16:27;100038.05;;;0.23;79.57
31911;BME280;18457;52.432;16.914;2022-12-13T12:19:01;100038.92;;;0.05;76.29
31911;BME280;18457;52.432;16.914;2022-12-13T12:21:41;100038.22;;;-0.08;76.42
31911;BME280;18457;52.432;16.914;2022-12-13T12:24:49;100038.16;;;-0.14;76.60
31911;BME280;18457;52.432;16.914;2022-12-13T12:27:33;100045.78;;;0.00;76.25
31911;BME280;18457;52.432;16.914;2022-12-13T12:30:17;100049.21;;;-0.09;76.29
31911;BME280;18457;52.432;16.914;2022-12-13T12:32:59;100045.86;;;-0.22;75.92
31911;BME280;18457;52.432;16.914;2022-12-13T12:36:17;100042.27;;;-0.25;75.31
31911;BME280;18457;52.432;16.914;2022-12-13T12:42:12;100043.02;;;0.06;74.28
31911;BME280;18457;52.432;16.914;2022-12-13T12:45:02;100042.50;;;0.08;73.66
31911;BME280;18457;52.432;16.914;2022-12-13T12:47:47;100038.70;;;-0.12;73.84
31911;BME280;18457;52.432;16.914;2022-12-13T12:50:51;100045.21;;;-0.17;74.29
31911;BME280;18457;52.432;16.914;2022-12-13T12:53:33;100045.15;;;-0.07;73.91
31911;BME280;18457;52.432;16.914;2022-12-13T12:56:26;100043.64;;;-0.01;73.60
31911;BME280;18457;52.432;16.914;2022-12-13T12:59:06;100044.11;;;-0.19;73.87
31911;BME280;18457;52.432;16.914;2022-12-13T13:01:52;100048.79;;;-0.14;73.89
31911;BME280;18457;52.432;16.914;2022-12-13T13:04:31;100049.29;;;-0.17;74.29
31911;BME280;18457;52.432;16.914;2022-12-13T13:07:09;100054.39;;;-0.21;73.96
31911;BME280;18457;52.432;16.914;2022-12-13T13:09:54;100052.58;;;-0.23;73.74
31911;BME280;18457;52.432;16.914;2022-12-13T13:12:45;100052.92;;;-0.10;73.51
31911;BME280;18457;52.432;16.914;2022-12-13T13:15:49;100056.23;;;-0.14;73.58
31911;BME280;18457;52.432;16.914;2022-12-13T13:18:43;100059.23;;;0.12;76.75
31911;BME280;18457;52.432;16.914;2022-12-13T13:21:36;100066.98;;;-0.08;74.17
31911;BME280;18457;52.432;16.914;2022-12-13T13:24:28;100066.11;;;-0.06;73.73
31911;BME280;18457;52.432;16.914;2022-12-13T13:27:24;100064.91;;;-0.02;73.09
31911;BME280;18457;52.432;16.914;2022-12-13T13:30:14;100066.17;;;-0.01;72.81
31911;BME280;18457;52.432;16.914;2022-12-13T13:32:48;100062.21;;;-0.06;73.05
31911;BME280;18457;52.432;16.914;2022-12-13T13:41:56;100077.73;;;-0.01;72.85
31911;BME280;18457;52.432;16.914;2022-12-13T13:45:14;100076.14;;;0.01;72.70
31911;BME280;18457;52.432;16.914;2022-12-13T13:48:01;100078.11;;;0.02;72.80